sensor_id;sensor_type;location;lat;lon;timestamp;temperature;humidity
9776;DHT22;4927;52.472;13.108;2022-11-12T00:04:31;3.90;99.90
9776;DHT22;4927;52.472;13.108;2022-11-12T00:09:37;3.80;99.90
9776;DHT22;4927;52.472;13.108;2022-11-12T00:14:43;3.70;99.90
9776;DHT22;4927;52.472;13.108;2022-11-12T00:19:47;3.70;99.90
9776;DHT22;4927;52.472;13.108;2022-11-12T00:24:54;3.60;99.90
9776;DHT22;4927;52.472;13.108;2022-11-12T00:30:00;3.50;99.90
9776;DHT22;4927;52.472;13.108;2022-11-12T00:35:08;3.50;99.90
9776;DHT22;4927;52.472;13.108;2022-11-12T00:40:15;3.40;99.90
9776;DHT22;4927;52.472;13.108;2022-11-12T00:45:21;3.40;99.90
9776;DHT22;4927;52.472;13.108;2022-11-12T00:50:28;3.40;99.90
9776;DHT22;4927;52.472;13.108;2022-11-12T00:55:34;3.40;99.90
9776;DHT22;4927;52.472;13.108;2022-11-12T01:00:44;3.40;99.90
9776;DHT22;4927;52.472;13.108;2022-11-12T01:05:51;3.40;99.90
9776;DHT22;4927;52.472;13.108;2022-11-12T01:11:07;3.30;99.90
9776;DHT22;4927;52.472;13.108;2022-11-12T01:16:14;3.30;99.90
9776;DHT22;4927;52.472;13.108;2022-11-12T01:21:21;3.20;99.90
9776;DHT22;4927;52.472;13.108;2022-11-12T01:26:27;3.20;99.90
9776;DHT22;4927;52.472;13.108;2022-11-12T01:31:35;3.20;99.90
9776;DHT22;4927;52.472;13.108;2022-11-12T01:36:40;3.20;99.90
9776;DHT22;4927;52.472;13.108;2022-11-12T01:41:46;3.10;99.90
9776;DHT22;4927;52.472;13.108;2022-11-12T01:47:03;3.10;99.90
9776;DHT22;4927;52.472;13.108;2022-11-12T01:57:24;3.00;99.90
9776;DHT22;4927;52.472;13.108;2022-11-12T02:02:29;2.90;99.90
9776;DHT22;4927;52.472;13.108;2022-11-12T02:07:35;2.90;99.90
9776;DHT22;4927;52.472;13.108;2022-11-12T02:12:41;2.80;99.90
9776;DHT22;4927;52.472;13.108;2022-11-12T02:17:53;2.80;99.90
9776;DHT22;4927;52.472;13.108;2022-11-12T02:23:00;2.80;99.90
9776;DHT22;4927;52.472;13.108;2022-11-12T02:28:06;2.80;99.90
9776;DHT22;4927;52.472;13.108;2022-11-12T02:33:12;2.80;99.90
9776;DHT22;4927;52.472;13.108;2022-11-12T02:38:18;2.70;99.90
9776;DHT22;4927;52.472;13.108;2022-11-12T02:43:25;2.70;99.90
9776;DHT22;4927;52.472;13.108;2022-11-12T02:48:32;2.60;99.90
9776;DHT22;4927;52.472;13.108;2022-11-12T02:53:38;2.60;99.90
9776;DHT22;4927;52.472;13.108;2022-11-12T02:58:44;2.60;99.90
9776;DHT22;4927;52.472;13.108;2022-11-12T03:03:51;2.60;99.90
9776;DHT22;4927;52.472;13.108;2022-11-12T03:08:57;2.60;99.90
9776;DHT22;4927;52.472;13.108;2022-11-12T03:14:03;2.70;99.90
9776;DHT22;4927;52.472;13.108;2022-11-12T03:19:09;2.70;99.90
9776;DHT22;4927;52.472;13.108;2022-11-12T03:24:16;2.80;99.90
9776;DHT22;4927;52.472;13.108;2022-11-12T03:29:23;2.90;99.90
9776;DHT22;4927;52.472;13.108;2022-11-12T03:34:30;2.90;99.90
9776;DHT22;4927;52.472;13.108;2022-11-12T03:39:36;2.80;99.90
9776;DHT22;4927;52.472;13.108;2022-11-12T03:44:42;2.90;99.90
9776;DHT22;4927;52.472;13.108;2022-11-12T03:49:48;2.90;99.90
9776;DHT22;4927;52.472;13.108;2022-11-12T03:54:55;2.90;99.90
9776;DHT22;4927;52.472;13.108;2022-11-12T04:00:01;2.90;99.90
9776;DHT22;4927;52.472;13.108;2022-11-12T04:05:08;2.90;99.90
9776;DHT22;4927;52.472;13.108;2022-11-12T04:10:20;2.90;99.90
9776;DHT22;4927;52.472;13.108;2022-11-12T04:15:26;3.00;99.90
9776;DHT22;4927;52.472;13.108;2022-11-12T04:20:33;3.00;99.90
9776;DHT22;4927;52.472;13.108;2022-11-12T04:25:45;2.90;99.90
9776;DHT22;4927;52.472;13.108;2022-11-12T04:30:58;2.90;99.90
9776;DHT22;4927;52.472;13.108;2022-11-12T04:36:04;2.80;99.90
9776;DHT22;4927;52.472;13.108;2022-11-12T04:41:10;2.70;99.90
9776;DHT22;4927;52.472;13.108;2022-11-12T04:46:23;2.70;99.90
9776;DHT22;4927;52.472;13.108;2022-11-12T04:51:29;2.70;99.90
9776;DHT22;4927;52.472;13.108;2022-11-12T04:56:56;2.70;99.90
9776;DHT22;4927;52.472;13.108;2022-11-12T05:02:02;2.60;99.90
9776;DHT22;4927;52.472;13.108;2022-11-12T05:07:06;2.60;99.90
9776;DHT22;4927;52.472;13.108;2022-11-12T05:12:13;2.50;99.90
9776;DHT22;4927;52.472;13.108;2022-11-12T05:17:25;2.50;99.90
9776;DHT22;4927;52.472;13.108;2022-11-12T05:22:32;2.40;99.90
9776;DHT22;4927;52.472;13.108;2022-11-12T05:27:38;2.40;99.90
9776;DHT22;4927;52.472;13.108;2022-11-12T05:32:45;2.30;99.90
9776;DHT22;4927;52.472;13.108;2022-11-12T05:37:51;2.30;99.90
9776;DHT22;4927;52.472;13.108;2022-11-12T05:42:57;2.30;99.90
9776;DHT22;4927;52.472;13.108;2022-11-12T05:48:04;2.30;99.90
9776;DHT22;4927;52.472;13.108;2022-11-12T05:53:10;2.20;99.90
9776;DHT22;4927;52.472;13.108;2022-11-12T05:58:17;2.20;99.90
9776;DHT22;4927;52.472;13.108;2022-11-12T06:03:45;2.20;99.90
9776;DHT22;4927;52.472;13.108;2022-11-12T06:08:51;2.10;99.90
9776;DHT22;4927;52.472;13.108;2022-11-12T06:13:58;2.10;99.90
9776;DHT22;4927;52.472;13.108;2022-11-12T06:19:04;2.10;99.90
9776;DHT22;4927;52.472;13.108;2022-11-12T06:24:10;2.00;99.90
9776;DHT22;4927;52.472;13.108;2022-11-12T06:29:16;2.00;99.90
9776;DHT22;4927;52.472;13.108;2022-11-12T06:34:23;2.10;99.90
9776;DHT22;4927;52.472;13.108;2022-11-12T06:39:30;2.00;99.90
9776;DHT22;4927;52.472;13.108;2022-11-12T06:44:37;2.00;99.90
9776;DHT22;4927;52.472;13.108;2022-11-12T06:49:41;2.00;99.90
9776;DHT22;4927;52.472;13.108;2022-11-12T06:54:47;2.00;99.90
9776;DHT22;4927;52.472;13.108;2022-11-12T06:59:53;1.90;99.90
9776;DHT22;4927;52.472;13.108;2022-11-12T07:05:00;2.00;99.90
9776;DHT22;4927;52.472;13.108;2022-11-12T07:10:07;2.10;99.90
9776;DHT22;4927;52.472;13.108;2022-11-12T07:15:14;2.20;99.90
9776;DHT22;4927;52.472;13.108;2022-11-12T07:20:20;2.30;99.90
9776;DHT22;4927;52.472;13.108;2022-11-12T07:25:26;2.40;99.90
9776;DHT22;4927;52.472;13.108;2022-11-12T07:30:33;2.80;99.90
9776;DHT22;4927;52.472;13.108;2022-11-12T07:35:44;2.80;99.90
9776;DHT22;4927;52.472;13.108;2022-11-12T07:40:50;3.00;99.90
9776;DHT22;4927;52.472;13.108;2022-11-12T07:45:58;3.20;99.90
9776;DHT22;4927;52.472;13.108;2022-11-12T07:51:10;3.50;99.90
9776;DHT22;4927;52.472;13.108;2022-11-12T07:56:15;3.50;99.90
9776;DHT22;4927;52.472;13.108;2022-11-12T08:01:23;3.70;99.90
9776;DHT22;4927;52.472;13.108;2022-11-12T08:06:29;3.90;99.90
9776;DHT22;4927;52.472;13.108;2022-11-12T08:11:35;4.10;99.90
9776;DHT22;4927;52.472;13.108;2022-11-12T08:16:41;4.30;99.90
9776;DHT22;4927;52.472;13.108;2022-11-12T08:21:47;4.50;99.90
9776;DHT22;4927;52.472;13.108;2022-11-12T08:26:53;4.70;99.90
9776;DHT22;4927;52.472;13.108;2022-11-12T08:31:59;4.90;99.90
9776;DHT22;4927;52.472;13.108;2022-11-12T08:37:06;5.10;99.90
9776;DHT22;4927;52.472;13.108;2022-11-12T08:42:12;5.30;99.90
9776;DHT22;4927;52.472;13.108;2022-11-12T08:47:19;5.60;99.90
9776;DHT22;4927;52.472;13.108;2022-11-12T08:52:26;5.90;99.90
9776;DHT22;4927;52.472;13.108;2022-11-12T08:57:37;5.90;99.90
9776;DHT22;4927;52.472;13.108;2022-11-12T09:02:36;6.20;99.90
9776;DHT22;4927;52.472;13.108;2022-11-12T09:07:43;6.60;99.90
9776;DHT22;4927;52.472;13.108;2022-11-12T09:12:50;6.60;99.90
9776;DHT22;4927;52.472;13.108;2022-11-12T09:18:01;6.80;99.90
9776;DHT22;4927;52.472;13.108;2022-11-12T09:23:08;7.10;99.90
9776;DHT22;4927;52.472;13.108;2022-11-12T09:28:14;7.30;99.90
9776;DHT22;4927;52.472;13.108;2022-11-12T09:33:22;7.60;99.90
9776;DHT22;4927;52.472;13.108;2022-11-12T09:38:24;7.90;99.90
9776;DHT22;4927;52.472;13.108;2022-11-12T09:43:31;8.20;99.90
9776;DHT22;4927;52.472;13.108;2022-11-12T09:48:39;8.40;99.90
9776;DHT22;4927;52.472;13.108;2022-11-12T09:53:48;9.00;99.90
9776;DHT22;4927;52.472;13.108;2022-11-12T09:58:53;9.00;99.90
9776;DHT22;4927;52.472;13.108;2022-11-12T10:04:21;9.50;99.90
9776;DHT22;4927;52.472;13.108;2022-11-12T10:09:23;9.60;99.90
9776;DHT22;4927;52.472;13.108;2022-11-12T10:14:39;9.90;99.90
9776;DHT22;4927;52.472;13.108;2022-11-12T10:20:13;10.00;99.90
9776;DHT22;4927;52.472;13.108;2022-11-12T10:25:18;10.00;99.90
9776;DHT22;4927;52.472;13.108;2022-11-12T10:30:24;10.20;99.90
9776;DHT22;4927;52.472;13.108;2022-11-12T10:35:30;10.40;99.90
9776;DHT22;4927;52.472;13.108;2022-11-12T10:40:38;10.50;99.90
9776;DHT22;4927;52.472;13.108;2022-11-12T10:45:45;10.80;99.90
9776;DHT22;4927;52.472;13.108;2022-11-12T10:50:51;11.00;99.90
9776;DHT22;4927;52.472;13.108;2022-11-12T10:55:58;11.00;99.90
9776;DHT22;4927;52.472;13.108;2022-11-12T11:01:05;11.20;99.90
9776;DHT22;4927;52.472;13.108;2022-11-12T11:06:22;11.40;99.90
9776;DHT22;4927;52.472;13.108;2022-11-12T11:11:28;11.80;99.90
9776;DHT22;4927;52.472;13.108;2022-11-12T11:16:46;11.80;99.90
9776;DHT22;4927;52.472;13.108;2022-11-12T11:21:58;12.00;99.90
9776;DHT22;4927;52.472;13.108;2022-11-12T11:27:27;12.10;99.90
9776;DHT22;4927;52.472;13.108;2022-11-12T11:32:54;12.20;99.90
9776;DHT22;4927;52.472;13.108;2022-11-12T11:44:12;12.30;99.90
9776;DHT22;4927;52.472;13.108;2022-11-12T12:00:17;12.50;99.90
9776;DHT22;4927;52.472;13.108;2022-11-12T12:05:38;12.60;99.90
9776;DHT22;4927;52.472;13.108;2022-11-12T12:10:51;12.80;99.90
9776;DHT22;4927;52.472;13.108;2022-11-12T12:16:04;13.00;99.90
9776;DHT22;4927;52.472;13.108;2022-11-12T12:21:08;13.20;99.90
9776;DHT22;4927;52.472;13.108;2022-11-12T12:26:24;13.20;99.90
9776;DHT22;4927;52.472;13.108;2022-11-12T12:31:30;13.30;99.90
9776;DHT22;4927;52.472;13.108;2022-11-12T12:36:37;13.30;99.90
9776;DHT22;4927;52.472;13.108;2022-11-12T12:41:45;13.30;99.90
9776;DHT22;4927;52.472;13.108;2022-11-12T12:46:54;13.40;99.90
9776;DHT22;4927;52.472;13.108;2022-11-12T12:51:58;13.30;99.90
9776;DHT22;4927;52.472;13.108;2022-11-12T12:57:24;13.30;99.90
9776;DHT22;4927;52.472;13.108;2022-11-12T13:02:18;13.30;99.90
9776;DHT22;4927;52.472;13.108;2022-11-12T13:07:20;13.30;99.90
9776;DHT22;4927;52.472;13.108;2022-11-12T13:17:55;13.10;99.90
9776;DHT22;4927;52.472;13.108;2022-11-12T13:23:02;13.10;99.90
9776;DHT22;4927;52.472;13.108;2022-11-12T13:28:08;13.10;99.90
9776;DHT22;4927;52.472;13.108;2022-11-12T13:33:19;12.90;99.90
9776;DHT22;4927;52.472;13.108;2022-11-12T13:38:18;12.90;99.90
9776;DHT22;4927;52.472;13.108;2022-11-12T13:43:41;13.00;99.90
9776;DHT22;4927;52.472;13.108;2022-11-12T13:48:48;12.80;99.90
9776;DHT22;4927;52.472;13.108;2022-11-12T13:53:51;12.80;99.90
9776;DHT22;4927;52.472;13.108;2022-11-12T13:59:12;12.70;99.90
9776;DHT22;4927;52.472;13.108;2022-11-12T14:04:14;12.60;99.90
9776;DHT22;4927;52.472;13.108;2022-11-12T14:09:44;12.50;99.90
9776;DHT22;4927;52.472;13.108;2022-11-12T14:14:53;12.40;99.90
9776;DHT22;4927;52.472;13.108;2022-11-12T14:20:07;12.30;99.90
9776;DHT22;4927;52.472;13.108;2022-11-12T14:25:17;12.10;99.90
9776;DHT22;4927;52.472;13.108;2022-11-12T14:30:23;11.90;99.90
9776;DHT22;4927;52.472;13.108;2022-11-12T14:35:31;11.80;99.90
9776;DHT22;4927;52.472;13.108;2022-11-12T14:40:37;11.60;99.90
9776;DHT22;4927;52.472;13.108;2022-11-12T14:45:46;11.30;99.90
9776;DHT22;4927;52.472;13.108;2022-11-12T14:50:47;11.00;99.90
9776;DHT22;4927;52.472;13.108;2022-11-12T14:55:53;10.60;99.90
9776;DHT22;4927;52.472;13.108;2022-11-12T15:00:57;10.30;99.90
9776;DHT22;4927;52.472;13.108;2022-11-12T15:06:08;10.10;99.90
9776;DHT22;4927;52.472;13.108;2022-11-12T15:11:17;9.70;99.90
9776;DHT22;4927;52.472;13.108;2022-11-12T15:16:23;9.50;99.90
9776;DHT22;4927;52.472;13.108;2022-11-12T15:21:26;9.20;99.90
9776;DHT22;4927;52.472;13.108;2022-11-12T15:26:35;9.00;99.90
9776;DHT22;4927;52.472;13.108;2022-11-12T15:31:47;8.70;99.90
9776;DHT22;4927;52.472;13.108;2022-11-12T15:36:53;8.50;99.90
9776;DHT22;4927;52.472;13.108;2022-11-12T15:41:59;8.30;99.90
9776;DHT22;4927;52.472;13.108;2022-11-12T15:47:07;8.20;99.90
9776;DHT22;4927;52.472;13.108;2022-11-12T15:52:12;8.10;99.90
9776;DHT22;4927;52.472;13.108;2022-11-12T15:57:20;8.20;99.90
9776;DHT22;4927;52.472;13.108;2022-11-12T16:02:25;7.70;99.90
9776;DHT22;4927;52.472;13.108;2022-11-12T16:07:31;7.50;99.90
9776;DHT22;4927;52.472;13.108;2022-11-12T16:12:38;7.30;99.90
9776;DHT22;4927;52.472;13.108;2022-11-12T16:17:42;7.10;99.90
9776;DHT22;4927;52.472;13.108;2022-11-12T16:22:49;7.00;99.90
9776;DHT22;4927;52.472;13.108;2022-11-12T16:27:55;6.80;99.90
9776;DHT22;4927;52.472;13.108;2022-11-12T16:33:01;6.70;99.90
9776;DHT22;4927;52.472;13.108;2022-11-12T16:38:11;7.00;99.90
9776;DHT22;4927;52.472;13.108;2022-11-12T16:43:15;6.50;99.90
9776;DHT22;4927;52.472;13.108;2022-11-12T16:48:22;6.20;99.90
9776;DHT22;4927;52.472;13.108;2022-11-12T16:53:28;6.20;99.90
9776;DHT22;4927;52.472;13.108;2022-11-12T16:58:35;6.00;99.90
9776;DHT22;4927;52.472;13.108;2022-11-12T17:03:41;6.00;99.90
9776;DHT22;4927;52.472;13.108;2022-11-12T17:08:47;5.90;99.90
9776;DHT22;4927;52.472;13.108;2022-11-12T17:13:53;5.80;99.90
9776;DHT22;4927;52.472;13.108;2022-11-12T17:19:00;5.60;99.90
9776;DHT22;4927;52.472;13.108;2022-11-12T17:24:06;5.50;99.90
9776;DHT22;4927;52.472;13.108;2022-11-12T17:29:11;5.40;99.90
9776;DHT22;4927;52.472;13.108;2022-11-12T17:34:17;5.40;99.90
9776;DHT22;4927;52.472;13.108;2022-11-12T17:39:23;5.30;99.90
9776;DHT22;4927;52.472;13.108;2022-11-12T17:44:29;5.10;99.90
9776;DHT22;4927;52.472;13.108;2022-11-12T17:49:36;5.00;99.90
9776;DHT22;4927;52.472;13.108;2022-11-12T17:54:42;4.90;99.90
9776;DHT22;4927;52.472;13.108;2022-11-12T18:05:24;4.80;99.90
9776;DHT22;4927;52.472;13.108;2022-11-12T18:10:30;4.60;99.90
9776;DHT22;4927;52.472;13.108;2022-11-12T18:15:36;4.60;99.90
9776;DHT22;4927;52.472;13.108;2022-11-12T18:20:42;4.50;99.90
9776;DHT22;4927;52.472;13.108;2022-11-12T18:25:49;4.30;99.90
9776;DHT22;4927;52.472;13.108;2022-11-12T18:30:58;4.30;99.90
9776;DHT22;4927;52.472;13.108;2022-11-12T18:36:05;4.30;99.90
9776;DHT22;4927;52.472;13.108;2022-11-12T18:41:12;4.20;99.90
9776;DHT22;4927;52.472;13.108;2022-11-12T18:46:18;4.10;99.90
9776;DHT22;4927;52.472;13.108;2022-11-12T18:51:24;4.00;99.90
9776;DHT22;4927;52.472;13.108;2022-11-12T18:56:28;4.00;99.90
9776;DHT22;4927;52.472;13.108;2022-11-12T19:01:35;3.90;99.90
9776;DHT22;4927;52.472;13.108;2022-11-12T19:06:41;3.90;99.90
9776;DHT22;4927;52.472;13.108;2022-11-12T19:16:31;3.70;99.90
9776;DHT22;4927;52.472;13.108;2022-11-12T19:21:38;3.70;99.90
9776;DHT22;4927;52.472;13.108;2022-11-12T19:26:45;3.70;99.90
9776;DHT22;4927;52.472;13.108;2022-11-12T19:31:51;3.60;99.90
9776;DHT22;4927;52.472;13.108;2022-11-12T19:36:58;3.70;99.90
9776;DHT22;4927;52.472;13.108;2022-11-12T19:53:13;3.40;99.90
9776;DHT22;4927;52.472;13.108;2022-11-12T19:58:19;3.30;99.90
9776;DHT22;4927;52.472;13.108;2022-11-12T20:03:25;3.30;99.90
9776;DHT22;4927;52.472;13.108;2022-11-12T20:08:32;3.20;99.90
9776;DHT22;4927;52.472;13.108;2022-11-12T20:13:36;3.10;99.90
9776;DHT22;4927;52.472;13.108;2022-11-12T20:18:46;3.00;99.90
9776;DHT22;4927;52.472;13.108;2022-11-12T20:23:52;3.00;99.90
9776;DHT22;4927;52.472;13.108;2022-11-12T20:28:58;3.00;99.90
9776;DHT22;4927;52.472;13.108;2022-11-12T20:34:05;2.90;99.90
9776;DHT22;4927;52.472;13.108;2022-11-12T20:39:11;2.80;99.90
9776;DHT22;4927;52.472;13.108;2022-11-12T20:44:17;2.80;99.90
9776;DHT22;4927;52.472;13.108;2022-11-12T20:49:28;2.70;99.90
9776;DHT22;4927;52.472;13.108;2022-11-12T20:54:34;2.60;99.90
9776;DHT22;4927;52.472;13.108;2022-11-12T20:59:44;2.60;99.90
9776;DHT22;4927;52.472;13.108;2022-11-12T21:05:27;2.60;99.90
9776;DHT22;4927;52.472;13.108;2022-11-12T21:10:32;2.50;99.90
9776;DHT22;4927;52.472;13.108;2022-11-12T21:15:38;2.60;99.90
9776;DHT22;4927;52.472;13.108;2022-11-12T21:20:45;2.60;99.90
9776;DHT22;4927;52.472;13.108;2022-11-12T21:25:51;2.60;99.90
9776;DHT22;4927;52.472;13.108;2022-11-12T21:31:00;2.60;99.90
9776;DHT22;4927;52.472;13.108;2022-11-12T21:36:06;2.60;99.90
9776;DHT22;4927;52.472;13.108;2022-11-12T21:41:14;2.60;99.90
9776;DHT22;4927;52.472;13.108;2022-11-12T21:46:23;2.70;99.90
9776;DHT22;4927;52.472;13.108;2022-11-12T21:51:29;2.80;99.90
9776;DHT22;4927;52.472;13.108;2022-11-12T21:56:35;2.90;99.90
9776;DHT22;4927;52.472;13.108;2022-11-12T22:01:42;2.90;99.90
9776;DHT22;4927;52.472;13.108;2022-11-12T22:06:48;2.90;99.90
9776;DHT22;4927;52.472;13.108;2022-11-12T22:11:54;2.90;99.90
9776;DHT22;4927;52.472;13.108;2022-11-12T22:17:01;2.90;99.90
9776;DHT22;4927;52.472;13.108;2022-11-12T22:22:08;2.90;99.90
9776;DHT22;4927;52.472;13.108;2022-11-12T22:27:14;2.90;99.90
9776;DHT22;4927;52.472;13.108;2022-11-12T22:32:20;2.90;99.90
9776;DHT22;4927;52.472;13.108;2022-11-12T22:37:26;2.90;99.90
9776;DHT22;4927;52.472;13.108;2022-11-12T22:42:33;2.80;99.90
9776;DHT22;4927;52.472;13.108;2022-11-12T22:47:39;2.80;99.90
9776;DHT22;4927;52.472;13.108;2022-11-12T22:52:45;2.90;99.90
9776;DHT22;4927;52.472;13.108;2022-11-12T22:57:51;2.90;99.90
9776;DHT22;4927;52.472;13.108;2022-11-12T23:02:58;2.90;99.90
9776;DHT22;4927;52.472;13.108;2022-11-12T23:08:04;2.90;99.90
9776;DHT22;4927;52.472;13.108;2022-11-12T23:13:11;3.00;99.90
9776;DHT22;4927;52.472;13.108;2022-11-12T23:18:15;3.10;99.90
9776;DHT22;4927;52.472;13.108;2022-11-12T23:23:21;3.20;99.90
9776;DHT22;4927;52.472;13.108;2022-11-12T23:28:27;3.30;99.90
9776;DHT22;4927;52.472;13.108;2022-11-12T23:33:34;3.50;99.90
9776;DHT22;4927;52.472;13.108;2022-11-12T23:38:40;3.60;99.90
9776;DHT22;4927;52.472;13.108;2022-11-12T23:43:46;3.80;99.90
9776;DHT22;4927;52.472;13.108;2022-11-12T23:48:52;4.00;99.90
9776;DHT22;4927;52.472;13.108;2022-11-12T23:53:58;4.10;99.90
9776;DHT22;4927;52.472;13.108;2022-11-12T23:59:05;4.20;99.90
